createdAt,value
2023-04-28T00:02:24.610Z,8.32
2023-04-28T00:04:53.066Z,8.33
2023-04-28T00:07:20.791Z,8.31
2023-04-28T00:09:49.041Z,8.33
2023-04-28T00:12:16.690Z,8.31
2023-04-28T00:14:44.731Z,8.26
2023-04-28T00:17:11.986Z,8.23
2023-04-28T00:19:39.546Z,8.17
2023-04-28T00:22:06.802Z,8.14
2023-04-28T00:24:36.327Z,8.17
2023-04-28T00:27:03.824Z,8.21
2023-04-28T00:29:31.355Z,8.23
2023-04-28T00:31:58.700Z,8.18
2023-04-28T00:34:26.632Z,8.29
2023-04-28T00:36:54.068Z,8.34
2023-04-28T00:39:23.216Z,8.22
2023-04-28T00:41:50.496Z,8.20
2023-04-28T00:44:18.293Z,8.19
2023-04-28T00:46:46.102Z,8.18
2023-04-28T00:49:15.445Z,8.15
2023-04-28T00:51:42.750Z,8.11
2023-04-28T00:54:14.841Z,8.10
2023-04-28T00:56:43.788Z,8.07
2023-04-28T00:59:11.319Z,8.06
2023-04-28T01:01:38.828Z,8.06
2023-04-28T01:04:06.637Z,8.05
2023-04-28T01:06:35.179Z,8.16
2023-04-28T01:09:02.704Z,8.10
2023-04-28T01:11:29.905Z,8.06
2023-04-28T01:13:59.509Z,7.92
2023-04-28T01:16:27.615Z,7.72
2023-04-28T01:18:55.493Z,7.76
2023-04-28T01:21:32.984Z,7.74
2023-04-28T01:24:06.384Z,7.73
2023-04-28T01:26:33.736Z,7.72
2023-04-28T01:29:01.723Z,7.60
2023-04-28T01:31:31.196Z,7.53
2023-04-28T01:33:59.475Z,7.59
2023-04-28T01:36:28.601Z,7.55
2023-04-28T01:38:56.451Z,7.40
2023-04-28T01:41:23.716Z,7.30
2023-04-28T01:43:51.318Z,7.37
2023-04-28T01:46:18.811Z,7.24
2023-04-28T01:48:46.614Z,7.28
2023-04-28T01:51:14.024Z,7.24
2023-04-28T01:53:41.528Z,7.17
2023-04-28T01:56:08.992Z,7.17
2023-04-28T01:58:36.526Z,7.10
2023-04-28T02:01:03.989Z,7.11
2023-04-28T02:03:31.754Z,7.21
2023-04-28T02:05:59.333Z,7.12
2023-04-28T02:08:27.030Z,6.65
2023-04-28T02:10:54.309Z,6.92
2023-04-28T02:13:21.817Z,7.05
2023-04-28T02:15:49.115Z,7.07
2023-04-28T02:18:16.724Z,7.05
2023-04-28T02:20:43.974Z,7.04
2023-04-28T02:23:11.461Z,6.93
2023-04-28T02:25:38.714Z,6.93
2023-04-28T02:28:06.254Z,6.93
2023-04-28T02:30:33.518Z,6.93
2023-04-28T02:33:01.234Z,6.93
2023-04-28T02:35:28.762Z,6.89
2023-04-28T02:37:56.440Z,6.83
2023-04-28T02:40:23.763Z,6.79
2023-04-28T02:42:51.352Z,6.79
2023-04-28T02:45:18.712Z,6.73
2023-04-28T02:47:46.398Z,6.71
2023-04-28T02:50:16.952Z,6.76
2023-04-28T02:52:44.914Z,6.77
2023-04-28T02:55:12.220Z,6.67
2023-04-28T02:57:39.763Z,6.67
2023-04-28T03:00:10.465Z,6.57
2023-04-28T03:02:38.159Z,6.51
2023-04-28T03:05:05.997Z,6.46
2023-04-28T03:07:33.547Z,6.38
2023-04-28T03:10:01.061Z,6.36
2023-04-28T03:12:28.664Z,6.35
2023-04-28T03:14:56.061Z,6.09
2023-04-28T03:17:23.734Z,6.22
2023-04-28T03:19:50.983Z,6.26
2023-04-28T03:22:18.705Z,6.35
2023-04-28T03:24:46.112Z,6.29
2023-04-28T03:27:13.669Z,6.14
2023-04-28T03:29:41.084Z,6.12
2023-04-28T03:32:09.159Z,6.11
2023-04-28T03:34:36.959Z,6.00
2023-04-28T03:37:04.835Z,5.94
2023-04-28T03:39:32.121Z,6.08
2023-04-28T03:41:59.908Z,6.17
2023-04-28T03:44:27.354Z,6.14
2023-04-28T03:46:54.911Z,6.17
2023-04-28T03:49:22.281Z,6.20
2023-04-28T03:51:51.463Z,6.20
2023-04-28T03:54:18.769Z,6.26
2023-04-28T03:56:46.577Z,6.35
2023-04-28T03:59:14.067Z,6.37
2023-04-28T04:01:41.521Z,6.46
2023-04-28T04:04:09.018Z,6.52
2023-04-28T04:06:36.768Z,6.63
2023-04-28T04:09:04.200Z,6.59
2023-04-28T04:11:31.765Z,6.72
2023-04-28T04:13:58.998Z,6.70
2023-04-28T04:16:27.009Z,6.77
2023-04-28T04:18:54.232Z,6.51
2023-04-28T04:21:22.060Z,6.45
2023-04-28T04:23:49.367Z,6.36
2023-04-28T04:26:16.956Z,6.65
2023-04-28T04:28:44.174Z,6.36
2023-04-28T04:31:12.601Z,6.71
2023-04-28T04:33:39.984Z,6.77
2023-04-28T04:36:07.937Z,6.64
2023-04-28T04:38:35.285Z,6.84
2023-04-28T04:41:02.782Z,6.93
2023-04-28T04:43:30.023Z,7.13
2023-04-28T04:45:57.581Z,6.95
2023-04-28T04:48:24.942Z,7.03
2023-04-28T04:50:52.427Z,7.05
2023-04-28T04:53:19.683Z,7.19
2023-04-28T04:55:47.317Z,7.28
2023-04-28T04:58:14.784Z,7.45
2023-04-28T05:00:42.310Z,7.56
2023-04-28T05:03:10.097Z,7.66
2023-04-28T05:05:37.919Z,7.80
2023-04-28T05:08:06.069Z,7.98
2023-04-28T05:10:34.004Z,8.15
2023-04-28T05:13:01.258Z,8.36
2023-04-28T05:15:29.502Z,8.51
2023-04-28T05:17:57.386Z,8.61
2023-04-28T05:20:24.968Z,8.89
2023-04-28T05:22:52.211Z,8.86
2023-04-28T05:25:19.753Z,9.07
2023-04-28T05:27:47.023Z,9.36
2023-04-28T05:30:15.902Z,9.45
2023-04-28T05:32:43.230Z,9.49
2023-04-28T05:35:10.812Z,9.61
2023-04-28T05:37:38.286Z,9.78
2023-04-28T05:40:09.178Z,10.00
2023-04-28T05:42:37.957Z,10.06
2023-04-28T05:45:09.934Z,10.13
2023-04-28T05:47:37.761Z,10.17
2023-04-28T05:50:07.958Z,10.24
2023-04-28T05:52:37.052Z,10.33
2023-04-28T05:55:05.353Z,10.00
2023-04-28T05:57:45.622Z,10.29
2023-04-28T06:00:20.147Z,10.46
2023-04-28T06:02:47.611Z,10.68
2023-04-28T06:05:15.625Z,10.90
2023-04-28T06:07:43.111Z,10.97
2023-04-28T06:10:11.567Z,10.96
2023-04-28T06:12:39.528Z,10.74
2023-04-28T06:15:07.644Z,11.17
2023-04-28T06:17:34.995Z,11.47
2023-04-28T06:20:02.598Z,11.81
2023-04-28T06:22:29.833Z,11.91
2023-04-28T06:24:57.422Z,12.09
2023-04-28T06:27:24.813Z,12.12
2023-04-28T06:29:52.351Z,12.40
2023-04-28T06:32:19.800Z,12.48
2023-04-28T06:34:47.406Z,12.73
2023-04-28T06:37:14.627Z,12.82
2023-04-28T06:39:42.167Z,13.01
2023-04-28T06:42:09.379Z,13.21
2023-04-28T06:44:36.934Z,13.26
2023-04-28T06:47:04.357Z,12.99
2023-04-28T06:49:32.026Z,13.05
2023-04-28T06:51:59.249Z,12.96
2023-04-28T06:54:26.870Z,13.11
2023-04-28T06:56:54.145Z,13.31
2023-04-28T06:59:21.947Z,13.11
2023-04-28T07:01:49.230Z,13.05
2023-04-28T07:04:17.180Z,13.26
2023-04-28T07:06:44.690Z,13.43
2023-04-28T07:09:12.466Z,13.55
2023-04-28T07:11:39.856Z,13.61
2023-04-28T07:14:08.472Z,13.53
2023-04-28T07:16:36.410Z,13.33
2023-04-28T07:19:04.086Z,14.02
2023-04-28T07:21:31.449Z,14.40
2023-04-28T07:23:59.015Z,14.70
2023-04-28T07:26:26.317Z,14.88
2023-04-28T07:28:53.917Z,14.64
2023-04-28T07:31:21.950Z,14.62
2023-04-28T07:33:49.478Z,14.96
2023-04-28T07:36:17.024Z,14.48
2023-04-28T07:38:44.819Z,15.21
2023-04-28T07:41:12.622Z,14.99
2023-04-28T07:43:41.290Z,15.28
2023-04-28T07:46:08.901Z,15.49
2023-04-28T07:48:36.646Z,15.57
2023-04-28T07:51:03.995Z,15.74
2023-04-28T07:53:31.586Z,16.39
2023-04-28T07:55:59.428Z,16.71
2023-04-28T07:58:27.072Z,16.21
2023-04-28T08:00:54.304Z,16.62
2023-04-28T08:03:22.239Z,16.82
2023-04-28T08:05:50.236Z,17.08
2023-04-28T08:08:18.434Z,16.36
2023-04-28T08:10:45.890Z,17.24
2023-04-28T08:13:13.579Z,16.51
2023-04-28T08:15:40.895Z,17.25
2023-04-28T08:18:08.930Z,17.85
2023-04-28T08:20:36.330Z,17.25
2023-04-28T08:23:04.118Z,17.36
2023-04-28T08:25:31.509Z,17.62
2023-04-28T08:27:59.227Z,17.04
2023-04-28T08:30:26.812Z,17.67
2023-04-28T08:32:54.500Z,18.08
2023-04-28T08:35:21.906Z,16.90
2023-04-28T08:37:49.762Z,17.28
2023-04-28T08:40:17.063Z,16.55
2023-04-28T08:42:46.370Z,16.96
2023-04-28T08:45:15.821Z,18.05
2023-04-28T08:47:47.899Z,18.24
2023-04-28T08:50:17.588Z,18.16
2023-04-28T08:52:46.260Z,18.47
2023-04-28T08:55:14.245Z,17.79
2023-04-28T08:57:51.523Z,17.81
2023-04-28T09:00:19.085Z,16.98
2023-04-28T09:02:46.826Z,16.35
2023-04-28T09:05:15.230Z,17.74
2023-04-28T09:07:47.096Z,18.34
2023-04-28T09:10:24.151Z,18.71
2023-04-28T09:12:54.706Z,19.80
2023-04-28T09:15:36.294Z,22.15
2023-04-28T09:18:08.869Z,23.96
2023-04-28T09:20:37.209Z,31.11
2023-04-28T09:23:17.685Z,34.78
2023-04-28T09:26:11.420Z,41.22
2023-04-28T09:28:39.014Z,42.24
2023-04-28T09:31:06.477Z,41.62
2023-04-28T09:34:05.965Z,43.35
2023-04-28T09:36:48.982Z,37.55
2023-04-28T09:39:33.439Z,44.40
2023-04-28T09:42:03.650Z,47.97
2023-04-28T09:44:31.209Z,50.63
2023-04-28T09:46:59.581Z,45.22
2023-04-28T09:49:27.155Z,41.12
2023-04-28T09:51:54.516Z,49.71
2023-04-28T09:54:24.275Z,52.36
2023-04-28T09:56:52.692Z,53.49
2023-04-28T09:59:20.356Z,52.30
2023-04-28T10:01:49.625Z,52.88
2023-04-28T10:04:17.796Z,56.10
2023-04-28T10:06:46.004Z,55.58
2023-04-28T10:09:14.218Z,59.53
2023-04-28T10:11:42.465Z,40.52
2023-04-28T10:14:11.440Z,37.52
2023-04-28T10:16:39.376Z,32.84
2023-04-28T10:19:09.241Z,44.16
2023-04-28T10:21:54.328Z,52.09
2023-04-28T10:24:33.211Z,52.18
2023-04-28T10:27:09.423Z,40.00
2023-04-28T10:29:37.699Z,43.86
2023-04-28T10:32:29.143Z,41.51
2023-04-28T10:35:23.613Z,51.96
2023-04-28T10:38:09.266Z,55.27
2023-04-28T10:40:42.611Z,50.56
2023-04-28T10:43:32.118Z,55.12
2023-04-28T10:46:06.525Z,55.05
2023-04-28T10:48:33.993Z,58.21
2023-04-28T10:51:07.531Z,58.51
2023-04-28T10:53:47.453Z,57.55
2023-04-28T10:56:22.738Z,53.84
2023-04-28T10:59:00.619Z,53.54
2023-04-28T11:01:34.649Z,47.73
2023-04-28T11:04:18.180Z,44.39
2023-04-28T11:06:47.997Z,41.26
2023-04-28T11:09:15.375Z,38.58
2023-04-28T11:12:06.877Z,34.61
2023-04-28T11:14:37.058Z,32.16
2023-04-28T11:17:09.497Z,30.72
2023-04-28T11:19:46.633Z,29.95
2023-04-28T11:22:18.582Z,29.36
2023-04-28T11:25:00.213Z,27.17
2023-04-28T11:27:31.446Z,24.33
2023-04-28T11:29:59.431Z,25.47
2023-04-28T11:32:33.506Z,25.06
2023-04-28T11:35:01.626Z,25.32
2023-04-28T11:37:29.194Z,24.56
2023-04-28T11:39:57.504Z,25.13
2023-04-28T11:42:27.230Z,25.00
2023-04-28T11:47:42.606Z,25.24
2023-04-28T11:50:10.094Z,24.27
2023-04-28T11:52:49.063Z,24.66
2023-04-28T11:55:18.088Z,25.21
2023-04-28T11:57:45.873Z,24.89
2023-04-28T11:59:21.436Z,25.43
2023-04-28T12:00:19.247Z,24.24
2023-04-28T12:02:47.194Z,24.52
2023-04-28T12:05:14.770Z,24.47
2023-04-28T12:07:44.426Z,25.18
2023-04-28T12:10:17.007Z,24.23
2023-04-28T12:12:52.004Z,21.99
2023-04-28T12:15:22.536Z,21.86
2023-04-28T12:17:51.619Z,22.67
2023-04-28T12:20:39.206Z,22.48
2023-04-28T12:23:07.929Z,23.50
2023-04-28T12:25:46.344Z,23.35
2023-04-28T12:28:14.142Z,23.38
2023-04-28T12:30:42.653Z,22.90
2023-04-28T12:33:29.086Z,21.20
2023-04-28T12:35:57.998Z,21.64
2023-04-28T12:38:26.443Z,21.87
2023-04-28T12:40:54.465Z,21.02
2023-04-28T12:43:25.819Z,22.04
2023-04-28T12:45:55.842Z,22.47
2023-04-28T12:48:27.396Z,22.61
2023-04-28T12:50:54.616Z,23.05
2023-04-28T12:53:22.188Z,23.07
2023-04-28T12:55:49.519Z,22.23
2023-04-28T12:58:18.046Z,22.33
2023-04-28T13:00:45.336Z,22.51
2023-04-28T13:03:13.031Z,22.82
2023-04-28T13:05:40.559Z,22.84
2023-04-28T13:08:08.319Z,23.30
2023-04-28T13:10:35.533Z,23.79
2023-04-28T13:13:03.219Z,22.46
2023-04-28T13:15:31.624Z,22.72
2023-04-28T13:17:59.965Z,23.23
2023-04-28T13:20:27.244Z,22.48
2023-04-28T13:22:54.773Z,22.34
2023-04-28T13:25:22.162Z,22.25
2023-04-28T13:27:50.036Z,22.07
2023-04-28T13:30:17.382Z,22.36
2023-04-28T13:32:44.981Z,22.89
2023-04-28T13:35:12.221Z,22.92
2023-04-28T13:37:45.679Z,23.09
2023-04-28T13:40:13.535Z,23.40
2023-04-28T13:42:41.148Z,23.68
2023-04-28T13:45:08.793Z,23.99
2023-04-28T13:47:36.400Z,24.13
2023-04-28T13:50:03.836Z,23.42
2023-04-28T13:52:31.620Z,23.00
2023-04-28T13:54:58.824Z,23.41
2023-04-28T13:57:27.092Z,23.64
2023-04-28T13:59:54.392Z,23.30
2023-04-28T14:02:22.114Z,23.25
2023-04-28T14:04:56.037Z,23.11
2023-04-28T14:07:23.665Z,22.28
2023-04-28T14:09:51.016Z,22.38
2023-04-28T14:12:18.508Z,21.02
2023-04-28T14:14:49.535Z,20.42
2023-04-28T14:17:18.586Z,21.49
2023-04-28T14:19:46.899Z,22.16
2023-04-28T14:22:14.431Z,22.38
2023-04-28T14:24:43.277Z,22.56
2023-04-28T14:27:11.259Z,22.48
2023-04-28T14:29:39.179Z,22.54
2023-04-28T14:32:06.708Z,22.41
2023-04-28T14:34:34.046Z,21.79
2023-04-28T14:37:01.721Z,21.43
2023-04-28T14:39:28.988Z,22.14
2023-04-28T14:41:56.682Z,22.17
2023-04-28T14:44:24.079Z,20.09
2023-04-28T14:46:51.962Z,21.06
2023-04-28T14:49:28.942Z,21.77
2023-04-28T14:51:57.029Z,21.78
2023-04-28T14:54:24.574Z,21.90
2023-04-28T14:56:52.103Z,22.33
2023-04-28T14:59:19.630Z,22.08
2023-04-28T15:01:47.226Z,21.73
2023-04-28T15:04:14.802Z,21.28
2023-04-28T15:06:42.481Z,21.52
2023-04-28T15:09:10.748Z,21.72
2023-04-28T15:11:38.299Z,21.65
2023-04-28T15:14:06.539Z,21.66
2023-04-28T15:16:34.184Z,22.12
2023-04-28T15:19:01.516Z,22.14
2023-04-28T15:21:29.901Z,21.96
2023-04-28T15:23:57.751Z,22.12
2023-04-28T15:26:29.725Z,22.06
2023-04-28T15:28:57.958Z,21.65
2023-04-28T15:31:25.975Z,21.55
2023-04-28T15:33:53.294Z,20.54
2023-04-28T15:36:21.413Z,20.80
2023-04-28T15:38:49.126Z,21.00
2023-04-28T15:41:16.638Z,20.30
2023-04-28T15:43:46.215Z,20.74
2023-04-28T15:46:17.224Z,20.53
2023-04-28T15:48:44.956Z,20.38
2023-04-28T15:51:12.519Z,19.75
2023-04-28T15:53:40.292Z,20.18
2023-04-28T15:56:08.817Z,20.12
2023-04-28T15:58:36.349Z,20.10
2023-04-28T16:01:05.296Z,20.12
2023-04-28T16:03:32.850Z,20.02
2023-04-28T16:06:01.226Z,19.99
2023-04-28T16:08:37.851Z,20.05
2023-04-28T16:11:05.582Z,20.03
2023-04-28T16:13:33.102Z,19.76
2023-04-28T16:16:00.663Z,20.09
2023-04-28T16:18:28.067Z,20.10
2023-04-28T16:20:55.648Z,19.97
2023-04-28T16:23:23.028Z,19.42
2023-04-28T16:25:51.055Z,19.23
2023-04-28T16:28:18.381Z,18.86
2023-04-28T16:30:47.168Z,19.29
2023-04-28T16:33:14.459Z,19.09
2023-04-28T16:35:42.132Z,19.12
2023-04-28T16:38:18.558Z,19.11
2023-04-28T16:40:46.152Z,19.27
2023-04-28T16:43:13.424Z,19.01
2023-04-28T16:45:41.620Z,19.17
2023-04-28T16:48:08.956Z,19.24
2023-04-28T16:50:38.237Z,19.18
2023-04-28T16:53:08.041Z,19.15
2023-04-28T16:55:36.759Z,18.65
2023-04-28T16:58:04.739Z,18.43
2023-04-28T17:00:32.650Z,18.38
2023-04-28T17:03:00.098Z,18.58
2023-04-28T17:05:27.969Z,18.50
2023-04-28T17:07:55.339Z,18.57
2023-04-28T17:10:23.028Z,18.20
2023-04-28T17:12:50.486Z,18.43
2023-04-28T17:15:18.614Z,18.50
2023-04-28T17:17:50.944Z,18.48
2023-04-28T17:20:20.352Z,18.16
2023-04-28T17:22:48.855Z,18.28
2023-04-28T17:25:17.170Z,18.28
2023-04-28T17:27:44.602Z,18.19
2023-04-28T17:30:13.543Z,17.94
2023-04-28T17:32:42.854Z,17.86
2023-04-28T17:35:10.605Z,17.77
2023-04-28T17:37:38.256Z,17.64
2023-04-28T17:40:06.483Z,17.42
2023-04-28T17:42:33.669Z,17.01
2023-04-28T17:45:01.354Z,17.12
2023-04-28T17:47:28.678Z,17.21
2023-04-28T17:49:56.834Z,17.21
2023-04-28T17:52:24.173Z,16.99
2023-04-28T17:54:52.226Z,16.98
2023-04-28T17:57:21.819Z,16.99
2023-04-28T17:59:51.025Z,16.93
2023-04-28T18:02:18.695Z,17.10
2023-04-28T18:04:46.979Z,16.99
2023-04-28T18:07:14.319Z,16.87
2023-04-28T18:09:41.999Z,17.00
2023-04-28T18:12:09.799Z,17.08
2023-04-28T18:14:37.401Z,17.08
2023-04-28T18:17:04.651Z,16.98
2023-04-28T18:19:32.421Z,16.95
2023-04-28T18:22:00.241Z,16.99
2023-04-28T18:24:27.804Z,17.03
2023-04-28T18:26:55.089Z,17.06
2023-04-28T18:29:22.638Z,17.06
2023-04-28T18:31:49.995Z,17.07
2023-04-28T18:34:18.063Z,17.13
2023-04-28T18:36:45.437Z,16.96
2023-04-28T18:39:13.135Z,16.99
2023-04-28T18:41:40.410Z,17.02
2023-04-28T18:44:07.926Z,17.07
2023-04-28T18:46:35.617Z,17.02
2023-04-28T18:49:03.709Z,17.02
2023-04-28T18:51:31.224Z,16.99
2023-04-28T18:53:59.172Z,16.97
2023-04-28T18:56:26.579Z,16.93
2023-04-28T18:58:54.068Z,16.92
2023-04-28T19:01:21.866Z,16.93
2023-04-28T19:03:49.545Z,16.95
2023-04-28T19:06:17.581Z,16.97
2023-04-28T19:08:45.226Z,16.86
2023-04-28T19:11:12.489Z,16.89
2023-04-28T19:13:44.721Z,16.78
2023-04-28T19:16:12.201Z,16.81
2023-04-28T19:18:42.041Z,16.71
2023-04-28T19:21:12.249Z,16.62
2023-04-28T19:23:40.997Z,16.64
2023-04-28T19:26:09.666Z,16.54
2023-04-28T19:28:37.327Z,16.43
2023-04-28T19:31:04.651Z,16.23
2023-04-28T19:33:32.822Z,16.32
2023-04-28T19:36:00.344Z,16.25
2023-04-28T19:38:28.656Z,16.15
2023-04-28T19:41:03.651Z,16.03
2023-04-28T19:43:31.661Z,16.07
2023-04-28T19:45:58.974Z,15.81
2023-04-28T19:48:26.750Z,15.80
2023-04-28T19:50:54.447Z,15.76
2023-04-28T19:53:22.134Z,15.53
2023-04-28T19:55:49.444Z,15.71
2023-04-28T19:58:17.434Z,15.64
2023-04-28T20:00:45.477Z,15.54
2023-04-28T20:03:14.980Z,15.54
2023-04-28T20:05:42.370Z,15.46
2023-04-28T20:08:09.918Z,15.39
2023-04-28T20:10:37.254Z,15.34
2023-04-28T20:13:07.060Z,15.30
2023-04-28T20:15:34.732Z,15.25
2023-04-28T20:18:02.326Z,15.21
2023-04-28T20:20:30.118Z,15.20
2023-04-28T20:22:57.651Z,15.23
2023-04-28T20:25:25.089Z,15.16
2023-04-28T20:27:52.594Z,15.09
2023-04-28T20:30:20.178Z,15.02
2023-04-28T20:32:48.834Z,15.04
2023-04-28T20:35:17.610Z,14.85
2023-04-28T20:37:45.229Z,14.86
2023-04-28T20:40:12.887Z,14.86
2023-04-28T20:42:40.753Z,14.85
2023-04-28T20:45:08.402Z,14.86
2023-04-28T20:47:36.702Z,14.83
2023-04-28T20:50:04.945Z,14.84
2023-04-28T20:52:32.609Z,14.81
2023-04-28T20:55:00.461Z,14.76
2023-04-28T20:57:28.070Z,14.71
2023-04-28T20:59:55.439Z,14.62
2023-04-28T21:02:23.342Z,14.48
2023-04-28T21:04:51.027Z,14.35
2023-04-28T21:07:18.841Z,14.37
2023-04-28T21:09:46.074Z,14.37
2023-04-28T21:12:13.713Z,14.31
2023-04-28T21:14:41.044Z,14.43
2023-04-28T21:17:09.068Z,14.37
2023-04-28T21:19:36.974Z,14.29
2023-04-28T21:22:04.560Z,14.24
2023-04-28T21:24:31.819Z,14.17
2023-04-28T21:27:04.369Z,14.21
2023-04-28T21:29:32.101Z,14.16
2023-04-28T21:31:59.650Z,14.14
2023-04-28T21:34:27.727Z,14.18
2023-04-28T21:36:55.373Z,14.24
2023-04-28T21:39:22.628Z,14.27
2023-04-28T21:41:50.313Z,14.28
2023-04-28T21:44:17.640Z,14.31
2023-04-28T21:46:45.253Z,14.32
2023-04-28T21:49:13.814Z,14.32
2023-04-28T21:51:45.968Z,14.38
2023-04-28T21:54:14.469Z,14.42
2023-04-28T21:56:42.123Z,14.40
2023-04-28T21:59:09.564Z,14.44
2023-04-28T22:01:38.480Z,14.41
2023-04-28T22:04:08.792Z,14.38
2023-04-28T22:06:36.792Z,14.37
2023-04-28T22:09:05.248Z,14.39
2023-04-28T22:11:33.352Z,14.38
2023-04-28T22:14:00.999Z,14.27
2023-04-28T22:16:28.860Z,14.31
2023-04-28T22:18:56.187Z,14.34
2023-04-28T22:21:24.395Z,14.34
2023-04-28T22:23:51.732Z,14.35
2023-04-28T22:26:20.296Z,14.37
2023-04-28T22:28:48.748Z,14.39
2023-04-28T22:31:16.595Z,14.31
2023-04-28T22:33:44.422Z,14.34
2023-04-28T22:36:12.152Z,14.36
2023-04-28T22:38:46.150Z,14.35
2023-04-28T22:41:13.768Z,14.37
2023-04-28T22:43:40.999Z,14.37
2023-04-28T22:46:08.937Z,14.32
2023-04-28T22:48:36.163Z,14.32
2023-04-28T22:51:03.815Z,14.27
2023-04-28T22:53:31.034Z,14.25
2023-04-28T22:56:00.552Z,14.20
2023-04-28T22:58:27.746Z,14.17
2023-04-28T23:00:59.860Z,14.13
2023-04-28T23:03:27.465Z,14.17
2023-04-28T23:05:55.196Z,14.08
2023-04-28T23:08:25.248Z,14.07
2023-04-28T23:10:57.200Z,14.14
2023-04-28T23:13:25.310Z,14.08
2023-04-28T23:15:53.218Z,14.03
2023-04-28T23:18:20.882Z,13.94
2023-04-28T23:20:49.124Z,13.92
2023-04-28T23:23:16.649Z,13.90
2023-04-28T23:25:44.286Z,13.88
2023-04-28T23:28:11.602Z,13.81
2023-04-28T23:30:39.158Z,13.76
2023-04-28T23:33:06.469Z,13.64
2023-04-28T23:35:34.026Z,13.66
2023-04-28T23:38:01.674Z,13.59
2023-04-28T23:40:29.336Z,13.50
2023-04-28T23:42:56.806Z,13.58
2023-04-28T23:45:24.454Z,13.63
2023-04-28T23:47:52.789Z,13.56
2023-04-28T23:50:20.320Z,13.53
2023-04-28T23:52:47.547Z,13.53
2023-04-28T23:55:15.394Z,13.49
2023-04-28T23:57:42.694Z,13.35
